Terminal Aerodrome Forecast
Issued by NWS Wilmington, NC

Home | Current Version | Previous Version | Text Only | Print | Product List | Glossary On
Versions: 1 2 3 4 5 6 7 8 9 10 11 12 13 14 15 16 17 18 19 20 21 22 23
000
FTUS42 KILM 260700 AAA
TAFLBT
TAF AMD
KLBT 260700Z 2607/2706 00000KT 3SM BR OVC003
     FM261400 30003KT 4SM BR OVC007
     FM261800 31010KT P6SM OVC015 PROB30 2618/2621 5SM -RA OVC015
     FM262100 01011KT P6SM OVC025 PROB30 2621/2624 5SM -DZ OVC015
     FM270000 03013KT P6SM OVC025 PROB30 2700/2703 P6SM -DZ OVC015
     FM270300 03009KT P6SM OVC050 PROB30 2703/2706 P6SM -RA OVC020=

USA.gov is the U.S. government's official web portal to all federal, state and local government web resources and services.